Time,TemperatureF,DewpointF,PressureIn,WindDirection,WindDirectionDegrees,WindSpeedMPH,WindSpeedGustMPH,Humidity,HourlyPrecipIn,Conditions,Clouds,dailyrainin,SolarRadiationWatts/m^2,SoftwareType,DateUTC
2013-02-16 00:21:00,34.0,34.0,-100.00,South,186,2.0,4.0,100,0.00,,,2.10,0.000000,,2013-02-16 09:21:00,
2013-02-16 00:31:00,34.0,34.0,-100.00,South,186,2.0,4.0,100,0.00,,,2.10,0.000000,,2013-02-16 09:31:00,
2013-02-16 00:42:00,34.0,34.0,-100.00,South,186,2.0,4.0,100,0.00,,,2.10,0.000000,,2013-02-16 09:42:00,
2013-02-16 00:51:00,34.0,34.0,-100.00,South,186,2.0,4.0,100,0.00,,,2.10,0.000000,,2013-02-16 09:51:00,
2013-02-16 01:21:00,34.0,34.0,-100.00,South,180,2.0,6.0,100,0.00,,,1.99,0.000000,,2013-02-16 10:21:00,
2013-02-16 01:31:00,34.0,34.0,-100.00,South,180,2.0,6.0,100,0.00,,,1.99,0.000000,,2013-02-16 10:31:00,
2013-02-16 01:41:00,34.0,34.0,-100.00,South,180,2.0,6.0,100,0.00,,,1.99,0.000000,,2013-02-16 10:41:00,
2013-02-16 01:51:00,34.0,34.0,-100.00,South,180,2.0,6.0,100,0.00,,,1.99,0.000000,,2013-02-16 10:51:00,
2013-02-16 02:22:00,35.0,35.0,-100.00,South,176,2.0,6.0,100,0.00,,,1.90,0.000000,,2013-02-16 11:22:00,
2013-02-16 02:31:00,35.0,35.0,-100.00,South,176,2.0,6.0,100,0.00,,,1.90,0.000000,,2013-02-16 11:31:00,
2013-02-16 02:42:00,35.0,35.0,-100.00,South,176,2.0,6.0,100,0.00,,,1.90,0.000000,,2013-02-16 11:42:00,
2013-02-16 02:52:00,35.0,35.0,-100.00,South,176,2.0,6.0,100,0.00,,,1.90,0.000000,,2013-02-16 11:52:00,
2013-02-16 03:22:00,35.0,35.0,-100.00,South,190,2.0,4.0,100,0.02,,,1.75,0.000000,,2013-02-16 12:22:00,
2013-02-16 03:32:00,35.0,35.0,-100.00,South,190,2.0,4.0,100,0.02,,,1.75,0.000000,,2013-02-16 12:32:00,
2013-02-16 03:42:00,35.0,35.0,-100.00,South,190,2.0,4.0,100,0.02,,,1.75,0.000000,,2013-02-16 12:42:00,
2013-02-16 03:52:00,35.0,35.0,-100.00,South,190,2.0,4.0,100,0.02,,,1.75,0.000000,,2013-02-16 12:52:00,
2013-02-16 04:21:00,35.0,35.0,-100.00,SSE,167,1.0,4.0,100,0.01,,,-99.99,0.000000,,2013-02-16 13:21:00,
2013-02-16 04:31:00,35.0,35.0,-100.00,SSE,167,1.0,4.0,100,0.01,,,-99.99,0.000000,,2013-02-16 13:31:00,
2013-02-16 04:41:00,35.0,35.0,-100.00,SSE,167,1.0,4.0,100,0.01,,,-99.99,0.000000,,2013-02-16 13:41:00,
2013-02-16 04:51:00,35.0,35.0,-100.00,SSE,167,1.0,4.0,100,0.01,,,-99.99,0.000000,,2013-02-16 13:51:00,
2013-02-16 05:21:00,35.0,35.0,-100.00,SSW,209,1.0,4.0,100,0.00,,,1.35,0.000000,,2013-02-16 14:21:00,
2013-02-16 05:32:00,35.0,35.0,-100.00,SSW,209,1.0,4.0,100,0.00,,,1.35,0.000000,,2013-02-16 14:32:00,
2013-02-16 05:41:00,35.0,35.0,-100.00,SSW,209,1.0,4.0,100,0.00,,,1.35,0.000000,,2013-02-16 14:41:00,
2013-02-16 05:52:00,35.0,35.0,-100.00,SSW,209,1.0,4.0,100,0.00,,,1.35,0.000000,,2013-02-16 14:52:00,
2013-02-16 06:21:00,33.0,33.0,-100.00,SSE,161,1.0,4.0,100,0.00,,,-99.99,0.000000,,2013-02-16 15:21:00,
2013-02-16 06:31:00,33.0,33.0,-100.00,SSE,161,1.0,4.0,100,0.00,,,-99.99,0.000000,,2013-02-16 15:31:00,
2013-02-16 06:41:00,33.0,33.0,-100.00,SSE,161,1.0,4.0,100,0.00,,,-99.99,0.000000,,2013-02-16 15:41:00,
2013-02-16 06:51:00,33.0,33.0,-100.00,SSE,161,1.0,4.0,100,0.00,,,-99.99,0.000000,,2013-02-16 15:51:00,
2013-02-16 07:21:00,32.0,32.0,-100.00,SSW,211,1.0,3.0,100,0.00,,,1.02,0.000000,,2013-02-16 16:21:00,
2013-02-16 07:32:00,32.0,32.0,-100.00,SSW,211,1.0,3.0,100,0.00,,,1.02,0.000000,,2013-02-16 16:32:00,
2013-02-16 07:41:00,32.0,32.0,-100.00,SSW,211,1.0,3.0,100,0.00,,,1.02,0.000000,,2013-02-16 16:41:00,
2013-02-16 07:51:00,32.0,32.0,-100.00,SSW,211,1.0,3.0,100,0.00,,,1.02,0.000000,,2013-02-16 16:51:00,
2013-02-16 08:21:00,31.0,31.0,-100.00,SSE,152,2.0,3.0,100,0.00,,,0.83,8.000000,,2013-02-16 17:21:00,
2013-02-16 08:32:00,31.0,31.0,-100.00,SSE,152,2.0,3.0,100,0.00,,,0.83,8.000000,,2013-02-16 17:32:00,
2013-02-16 08:41:00,31.0,31.0,-100.00,SSE,152,2.0,3.0,100,0.00,,,0.83,8.000000,,2013-02-16 17:41:00,
2013-02-16 08:52:00,31.0,31.0,-100.00,SSE,152,2.0,3.0,100,0.00,,,0.83,8.000000,,2013-02-16 17:52:00,
2013-02-16 09:21:00,34.0,34.0,-100.00,SE,124,1.0,4.0,100,0.01,,,0.66,89.000000,,2013-02-16 18:21:00,
2013-02-16 09:33:00,34.0,34.0,-100.00,SE,124,1.0,4.0,100,0.01,,,0.66,89.000000,,2013-02-16 18:33:00,
2013-02-16 09:42:00,34.0,34.0,-100.00,SE,124,1.0,4.0,100,0.01,,,0.66,89.000000,,2013-02-16 18:42:00,
2013-02-16 09:51:00,34.0,34.0,-100.00,SE,124,1.0,4.0,100,0.01,,,0.66,89.000000,,2013-02-16 18:51:00,
2013-02-16 10:21:00,38.0,38.0,-100.00,South,180,2.0,5.0,100,0.00,,,0.47,346.000000,,2013-02-16 19:21:00,
2013-02-16 10:31:00,38.0,38.0,-100.00,South,180,2.0,5.0,100,0.00,,,0.47,346.000000,,2013-02-16 19:31:00,
2013-02-16 10:42:00,38.0,38.0,-100.00,South,180,2.0,5.0,100,0.00,,,0.47,346.000000,,2013-02-16 19:42:00,
2013-02-16 10:52:00,38.0,38.0,-100.00,South,180,2.0,5.0,100,0.00,,,0.47,346.000000,,2013-02-16 19:52:00,
2013-02-16 11:21:00,41.0,38.0,-100.00,South,190,3.0,6.0,89,0.00,,,0.25,457.000000,,2013-02-16 20:21:00,
2013-02-16 11:32:00,41.0,38.0,-100.00,South,190,3.0,6.0,89,0.00,,,0.25,457.000000,,2013-02-16 20:32:00,
2013-02-16 11:42:00,41.0,38.0,-100.00,South,190,3.0,6.0,89,0.00,,,0.25,457.000000,,2013-02-16 20:42:00,
2013-02-16 11:52:00,41.0,38.0,-100.00,South,190,3.0,6.0,89,0.00,,,0.25,457.000000,,2013-02-16 20:52:00,
2013-02-16 12:21:00,41.0,37.0,-100.00,South,184,3.0,6.0,84,0.00,,,0.08,360.000000,,2013-02-16 21:21:00,
2013-02-16 12:31:00,41.0,37.0,-100.00,South,184,3.0,6.0,84,0.00,,,0.08,360.000000,,2013-02-16 21:31:00,
2013-02-16 12:41:00,41.0,37.0,-100.00,South,184,3.0,6.0,84,0.00,,,0.08,360.000000,,2013-02-16 21:41:00,
2013-02-16 12:52:00,41.0,37.0,-100.00,South,184,3.0,6.0,84,0.00,,,0.08,360.000000,,2013-02-16 21:52:00,
2013-02-16 13:21:00,41.0,35.0,-100.00,SSE,154,4.0,6.0,79,0.00,,,0.05,323.000000,,2013-02-16 22:21:00,
2013-02-16 13:32:00,41.0,35.0,-100.00,SSE,154,4.0,6.0,79,0.00,,,0.05,323.000000,,2013-02-16 22:32:00,
2013-02-16 13:42:00,41.0,35.0,-100.00,SSE,154,4.0,6.0,79,0.00,,,0.05,323.000000,,2013-02-16 22:42:00,
2013-02-16 13:51:00,41.0,35.0,-100.00,SSE,154,4.0,6.0,79,0.00,,,0.05,323.000000,,2013-02-16 22:51:00,
2013-02-16 14:21:00,42.0,36.0,-100.00,South,179,4.0,6.0,79,0.00,,,0.05,220.000000,,2013-02-16 23:21:00,
2013-02-16 14:31:00,42.0,36.0,-100.00,South,179,4.0,6.0,79,0.00,,,0.05,220.000000,,2013-02-16 23:31:00,
2013-02-16 14:42:00,42.0,36.0,-100.00,South,179,4.0,6.0,79,0.00,,,0.05,220.000000,,2013-02-16 23:42:00,
2013-02-16 14:52:00,42.0,36.0,-100.00,South,179,4.0,6.0,79,0.00,,,0.05,220.000000,,2013-02-16 23:52:00,
2013-02-16 15:21:00,37.0,33.0,-100.00,SSW,195,2.0,7.0,86,0.04,,,0.09,80.000000,,2013-02-17 00:21:00,
2013-02-16 15:31:00,37.0,33.0,-100.00,SSW,195,2.0,7.0,86,0.04,,,0.09,80.000000,,2013-02-17 00:31:00,
2013-02-16 15:41:00,37.0,33.0,-100.00,SSW,195,2.0,7.0,86,0.04,,,0.09,80.000000,,2013-02-17 00:41:00,
2013-02-16 15:51:00,37.0,33.0,-100.00,SSW,195,2.0,7.0,86,0.04,,,0.09,80.000000,,2013-02-17 00:51:00,
2013-02-16 16:21:00,36.0,33.0,-100.00,WSW,254,4.0,7.0,89,0.00,,,0.09,72.000000,,2013-02-17 01:21:00,
2013-02-16 16:31:00,36.0,33.0,-100.00,WSW,254,4.0,7.0,89,0.00,,,0.09,72.000000,,2013-02-17 01:31:00,
2013-02-16 16:41:00,36.0,33.0,-100.00,WSW,254,4.0,7.0,89,0.00,,,0.09,72.000000,,2013-02-17 01:41:00,
2013-02-16 16:52:00,36.0,33.0,-100.00,WSW,254,4.0,7.0,89,0.00,,,0.09,72.000000,,2013-02-17 01:52:00,
2013-02-16 17:21:00,35.0,33.0,-100.00,WNW,284,1.0,7.0,94,0.00,,,0.09,21.000000,,2013-02-17 02:21:00,
2013-02-16 17:31:00,35.0,33.0,-100.00,WNW,284,1.0,7.0,94,0.00,,,0.09,21.000000,,2013-02-17 02:31:00,
2013-02-16 17:41:00,35.0,33.0,-100.00,WNW,284,1.0,7.0,94,0.00,,,0.09,21.000000,,2013-02-17 02:41:00,
2013-02-16 17:52:00,35.0,33.0,-100.00,WNW,284,1.0,7.0,94,0.00,,,0.09,21.000000,,2013-02-17 02:52:00,
2013-02-16 18:11:00,33.0,32.0,-100.00,West,273,2.0,4.0,96,0.00,,,0.09,1.000000,,2013-02-17 03:11:00,
2013-02-16 18:21:00,33.0,32.0,-100.00,West,273,2.0,4.0,96,0.00,,,0.09,1.000000,,2013-02-17 03:21:00,
2013-02-16 18:31:00,33.0,32.0,-100.00,West,273,2.0,4.0,96,0.00,,,0.09,1.000000,,2013-02-17 03:31:00,
2013-02-16 18:42:00,33.0,32.0,-100.00,West,273,2.0,4.0,96,0.00,,,0.09,1.000000,,2013-02-17 03:42:00,
2013-02-16 18:51:00,33.0,32.0,-100.00,West,273,2.0,4.0,96,0.00,,,0.09,1.000000,,2013-02-17 03:51:00,
2013-02-16 19:21:00,31.0,31.0,-100.00,NW,313,0.0,3.0,98,0.00,,,0.08,0.000000,,2013-02-17 04:21:00,
2013-02-16 19:31:00,31.0,31.0,-100.00,NW,313,0.0,3.0,98,0.00,,,0.08,0.000000,,2013-02-17 04:31:00,
2013-02-16 19:41:00,31.0,31.0,-100.00,NW,313,0.0,3.0,98,0.00,,,0.08,0.000000,,2013-02-17 04:41:00,
2013-02-16 19:51:00,31.0,31.0,-100.00,NW,313,0.0,3.0,98,0.00,,,0.08,0.000000,,2013-02-17 04:51:00,
2013-02-16 20:22:00,30.0,29.0,-100.00,West,280,1.0,2.0,98,0.00,,,0.08,0.000000,,2013-02-17 05:22:00,
2013-02-16 20:32:00,30.0,29.0,-100.00,West,280,1.0,2.0,98,0.00,,,0.08,0.000000,,2013-02-17 05:32:00,
2013-02-16 20:42:00,30.0,29.0,-100.00,West,280,1.0,2.0,98,0.00,,,0.08,0.000000,,2013-02-17 05:42:00,
2013-02-16 20:52:00,30.0,29.0,-100.00,West,280,1.0,2.0,98,0.00,,,0.08,0.000000,,2013-02-17 05:52:00,
2013-02-16 21:21:00,30.0,30.0,-100.00,West,261,2.0,4.0,99,0.00,,,0.08,0.000000,,2013-02-17 06:21:00,
2013-02-16 21:31:00,30.0,30.0,-100.00,West,261,2.0,4.0,99,0.00,,,0.08,0.000000,,2013-02-17 06:31:00,
2013-02-16 21:41:00,30.0,30.0,-100.00,West,261,2.0,4.0,99,0.00,,,0.08,0.000000,,2013-02-17 06:41:00,
2013-02-16 21:51:00,30.0,30.0,-100.00,West,261,2.0,4.0,99,0.00,,,0.08,0.000000,,2013-02-17 06:51:00,
2013-02-16 22:21:00,28.0,28.0,-100.00,West,269,1.0,2.0,99,0.00,,,0.08,0.000000,,2013-02-17 07:21:00,
2013-02-16 22:31:00,28.0,28.0,-100.00,West,269,1.0,2.0,99,0.00,,,0.08,0.000000,,2013-02-17 07:31:00,
2013-02-16 22:41:00,28.0,28.0,-100.00,West,269,1.0,2.0,99,0.00,,,0.08,0.000000,,2013-02-17 07:41:00,
2013-02-16 22:51:00,28.0,28.0,-100.00,West,269,1.0,2.0,99,0.00,,,0.08,0.000000,,2013-02-17 07:51:00,
2013-02-16 23:21:00,28.0,28.0,-100.00,SSW,210,2.0,3.0,99,0.00,,,0.08,0.000000,,2013-02-17 08:21:00,
2013-02-16 23:31:00,28.0,28.0,-100.00,SSW,210,2.0,3.0,99,0.00,,,0.08,0.000000,,2013-02-17 08:31:00,
2013-02-16 23:42:00,28.0,28.0,-100.00,SSW,210,2.0,3.0,99,0.00,,,0.08,0.000000,,2013-02-17 08:42:00,
2013-02-16 23:52:00,28.0,28.0,-100.00,SSW,210,2.0,3.0,99,0.00,,,0.08,0.000000,,2013-02-17 08:52:00,